createdAt,value
2018-05-03T00:00:45.897Z,47.18
2018-05-03T00:01:45.835Z,47.27
2018-05-03T00:02:45.841Z,46.98
2018-05-03T00:03:45.600Z,47.08
2018-05-03T00:04:45.606Z,47.18
2018-05-03T00:05:45.925Z,47.18
2018-05-03T00:06:45.942Z,47.08
2018-05-03T00:07:45.678Z,46.7
2018-05-03T00:08:45.977Z,46.8
2018-05-03T00:09:45.979Z,46.98
2018-05-03T00:10:46.000Z,47.37
2018-05-03T00:11:46.015Z,46.89
2018-05-03T00:12:46.254Z,46.89
2018-05-03T00:13:46.057Z,47.18
2018-05-03T00:14:46.080Z,47.27
2018-05-03T00:15:46.095Z,47.37
2018-05-03T00:16:46.230Z,47.08
2018-05-03T00:17:46.136Z,47.18
2018-05-03T00:18:45.875Z,47.18
2018-05-03T00:19:46.170Z,47.27
2018-05-03T00:20:46.189Z,47.08
2018-05-03T00:21:46.215Z,47.27
2018-05-03T00:22:45.957Z,47.37
2018-05-03T00:23:46.249Z,46.98
2018-05-03T00:24:46.268Z,47.66
2018-05-03T00:25:46.007Z,47.18
2018-05-03T00:26:46.305Z,47.47
2018-05-03T00:27:46.327Z,47.47
2018-05-03T00:28:46.349Z,47.75
2018-05-03T00:29:46.084Z,47.66
2018-05-03T00:30:46.102Z,47.66
2018-05-03T00:31:46.122Z,47.56
2018-05-03T00:32:46.417Z,47.75
2018-05-03T00:33:46.441Z,47.75
2018-05-03T00:34:46.458Z,48.04
2018-05-03T00:35:46.475Z,47.85
2018-05-03T00:36:46.498Z,47.94
2018-05-03T00:37:46.516Z,48.13
2018-05-03T00:38:46.539Z,48.23
2018-05-03T00:39:46.277Z,48.04
2018-05-03T00:40:46.576Z,47.94
2018-05-03T00:41:46.591Z,48.04
2018-05-03T00:42:46.608Z,47.75
2018-05-03T00:43:46.358Z,47.75
2018-05-03T00:44:46.645Z,48.42
2018-05-03T00:45:46.670Z,47.75
2018-05-03T00:46:46.685Z,48.23
2018-05-03T00:47:46.706Z,48.23
2018-05-03T00:48:46.722Z,48.23
2018-05-03T00:49:46.747Z,48.33
2018-05-03T00:50:46.770Z,48.23
2018-05-03T00:51:46.779Z,47.94
2018-05-03T00:52:46.804Z,48.13
2018-05-03T00:53:46.818Z,48.04
2018-05-03T00:54:46.843Z,48.13
2018-05-03T00:55:46.856Z,48.52
2018-05-03T00:56:46.872Z,48.52
2018-05-03T00:57:46.896Z,48.13
2018-05-03T00:58:46.921Z,48.42
2018-05-03T00:59:46.931Z,48.52
2018-05-03T01:00:46.949Z,48.9
2018-05-03T01:01:46.971Z,49
2018-05-03T01:02:46.994Z,49
2018-05-03T01:03:46.729Z,48.9
2018-05-03T01:04:46.751Z,48.8
2018-05-03T01:05:47.045Z,49.48
2018-05-03T01:06:47.066Z,49.38
2018-05-03T01:07:47.081Z,49.29
2018-05-03T01:08:47.100Z,49.19
2018-05-03T01:09:47.124Z,49
2018-05-03T01:10:46.862Z,48.8
2018-05-03T01:11:47.165Z,49.38
2018-05-03T01:12:47.177Z,49.09
2018-05-03T01:13:46.921Z,49.19
2018-05-03T01:14:47.217Z,49.45
2018-05-03T01:15:47.236Z,49.19
2018-05-03T01:16:47.252Z,49.19
2018-05-03T01:17:47.281Z,49.29
2018-05-03T01:18:47.294Z,49.64
2018-05-03T01:19:47.309Z,49.64
2018-05-03T01:20:47.340Z,49.16
2018-05-03T01:21:47.349Z,49.55
2018-05-03T01:22:47.369Z,49.26
2018-05-03T01:23:47.389Z,50.24
2018-05-03T01:24:47.406Z,50.02
2018-05-03T01:25:47.426Z,49.35
2018-05-03T01:26:47.442Z,50.02
2018-05-03T01:27:47.462Z,49.45
2018-05-03T01:28:47.489Z,49.45
2018-05-03T01:29:47.524Z,49.55
2018-05-03T01:30:47.517Z,49.55
2018-05-03T01:31:47.541Z,50.15
2018-05-03T01:32:47.603Z,50.21
2018-05-03T01:33:47.583Z,49.74
2018-05-03T01:34:47.321Z,49.64
2018-05-03T01:35:47.624Z,50.12
2018-05-03T01:36:47.642Z,50.21
2018-05-03T01:37:47.676Z,50.12
2018-05-03T01:38:47.669Z,49.93
2018-05-03T01:39:47.692Z,50.21
2018-05-03T01:40:47.701Z,50.7
2018-05-03T01:41:47.723Z,49.93
2018-05-03T01:42:47.746Z,49.93
2018-05-03T01:43:47.780Z,50.12
2018-05-03T01:44:47.779Z,50.21
2018-05-03T01:45:47.814Z,50.12
2018-05-03T01:46:47.821Z,50.12
2018-05-03T01:47:47.563Z,50.5
2018-05-03T01:48:47.594Z,50.7
2018-05-03T01:49:47.879Z,50.6
2018-05-03T01:50:47.915Z,49.93
2018-05-03T01:51:47.929Z,50.6
2018-05-03T01:52:48.012Z,50.5
2018-05-03T01:53:47.966Z,50.5
2018-05-03T01:54:47.983Z,50.41
2018-05-03T01:55:48.001Z,50.41
2018-05-03T01:56:48.035Z,50.5
2018-05-03T01:57:47.746Z,50.89
2018-05-03T01:58:47.774Z,50.79
2018-05-03T01:59:47.798Z,50.98
2018-05-03T02:00:48.099Z,50.7
2018-05-03T02:01:47.822Z,51.17
2018-05-03T02:02:47.890Z,50.98
2018-05-03T02:03:48.149Z,51.17
2018-05-03T02:04:48.181Z,50.89
2018-05-03T02:05:47.911Z,51.17
2018-05-03T02:06:47.927Z,51.27
2018-05-03T02:07:48.275Z,51.27
2018-05-03T02:08:48.248Z,51.17
2018-05-03T02:09:48.267Z,51.46
2018-05-03T02:10:48.005Z,51.07
2018-05-03T02:11:48.014Z,51.36
2018-05-03T02:12:48.033Z,51.65
2018-05-03T02:13:48.336Z,51.75
2018-05-03T02:14:48.348Z,51.46
2018-05-03T02:15:48.377Z,51.65
2018-05-03T02:16:48.111Z,51.75
2018-05-03T02:17:48.396Z,52.03
2018-05-03T02:18:48.526Z,52.03
2018-05-03T02:19:48.446Z,52.22
2018-05-03T02:20:48.469Z,52.13
2018-05-03T02:21:48.553Z,52.03
2018-05-03T02:22:48.551Z,52.51
2018-05-03T02:23:48.540Z,52.51
2018-05-03T02:24:48.264Z,52.51
2018-05-03T02:25:48.552Z,52.32
2018-05-03T02:26:48.586Z,52.51
2018-05-03T02:27:48.647Z,52.22
2018-05-03T02:28:48.620Z,52.42
2018-05-03T02:29:48.641Z,52.51
2018-05-03T02:30:48.665Z,52.61
2018-05-03T02:31:48.688Z,52.42
2018-05-03T02:32:48.676Z,52.51
2018-05-03T02:33:48.436Z,52.51
2018-05-03T02:34:48.455Z,52.51
2018-05-03T02:35:48.467Z,52.7
2018-05-03T02:36:48.759Z,52.32
2018-05-03T02:37:48.791Z,52.51
2018-05-03T02:38:48.802Z,52.51
2018-05-03T02:39:48.829Z,52.42
2018-05-03T02:40:48.843Z,52.39
2018-05-03T02:41:48.582Z,52.48
2018-05-03T02:42:48.593Z,52.39
2018-05-03T02:43:48.889Z,52.39
2018-05-03T02:44:48.906Z,52.48
2018-05-03T02:45:48.931Z,52.61
2018-05-03T02:46:48.949Z,52.58
2018-05-03T02:47:49.013Z,52.48
2018-05-03T02:48:48.979Z,52.67
2018-05-03T02:49:48.720Z,52.39
2018-05-03T02:50:49.014Z,52.87
2018-05-03T02:51:49.034Z,52.7
2018-05-03T02:52:49.150Z,52.87
2018-05-03T02:53:49.080Z,52.67
2018-05-03T02:54:49.215Z,52.77
2018-05-03T02:55:49.111Z,52.77
2018-05-03T02:56:49.128Z,52.58
2018-05-03T02:57:49.150Z,52.67
2018-05-03T02:58:49.161Z,53.16
2018-05-03T02:59:49.215Z,52.77
2018-05-03T03:00:49.219Z,52.87
2018-05-03T03:01:49.222Z,52.67
2018-05-03T03:02:49.242Z,53.06
2018-05-03T03:03:49.269Z,52.96
2018-05-03T03:04:49.271Z,52.96
2018-05-03T03:05:49.035Z,53.25
2018-05-03T03:06:49.334Z,53.06
2018-05-03T03:07:49.333Z,52.87
2018-05-03T03:08:49.364Z,52.87
2018-05-03T03:09:49.367Z,52.96
2018-05-03T03:10:49.403Z,52.87
2018-05-03T03:11:49.411Z,52.67
2018-05-03T03:12:49.419Z,52.67
2018-05-03T03:13:49.159Z,52.96
2018-05-03T03:14:49.185Z,52.77
2018-05-03T03:15:49.197Z,52.67
2018-05-03T03:16:49.580Z,52.87
2018-05-03T03:17:49.526Z,52.96
2018-05-03T03:18:49.529Z,52.87
2018-05-03T03:19:49.565Z,52.77
2018-05-03T03:20:49.288Z,52.96
2018-05-03T03:21:49.598Z,52.96
2018-05-03T03:22:49.619Z,52.67
2018-05-03T03:23:49.640Z,52.67
2018-05-03T03:24:49.646Z,52.96
2018-05-03T03:25:49.671Z,53.06
2018-05-03T03:26:49.689Z,52.77
2018-05-03T03:27:49.712Z,52.77
2018-05-03T03:28:49.715Z,52.77
2018-05-03T03:29:49.746Z,52.67
2018-05-03T03:30:49.754Z,52.87
2018-05-03T03:31:49.767Z,52.77
2018-05-03T03:32:50.066Z,52.67
2018-05-03T03:33:49.553Z,52.87
2018-05-03T03:34:49.551Z,52.96
2018-05-03T03:35:49.846Z,52.77
2018-05-03T03:36:49.879Z,52.67
2018-05-03T03:37:49.881Z,52.67
2018-05-03T03:38:49.907Z,52.96
2018-05-03T03:39:49.918Z,52.87
2018-05-03T03:40:49.955Z,52.77
2018-05-03T03:41:49.970Z,52.87
2018-05-03T03:42:49.974Z,52.96
2018-05-03T03:43:49.724Z,52.77
2018-05-03T03:44:50.015Z,52.77
2018-05-03T03:45:50.043Z,52.67
2018-05-03T03:46:50.066Z,52.77
2018-05-03T03:47:49.788Z,53.06
2018-05-03T03:48:49.811Z,53.06
2018-05-03T03:49:50.096Z,52.48
2018-05-03T03:50:50.133Z,53.06
2018-05-03T03:51:50.133Z,52.77
2018-05-03T03:52:50.227Z,53.53
2018-05-03T03:53:50.178Z,52.77
2018-05-03T03:54:50.203Z,52.39
2018-05-03T03:55:49.945Z,53.25
2018-05-03T03:56:49.963Z,52.96
2018-05-03T03:57:49.977Z,52.48
2018-05-03T03:58:49.991Z,52.96
2018-05-03T03:59:50.304Z,52.77
2018-05-03T04:00:50.312Z,53.06
2018-05-03T04:01:50.341Z,53.63
2018-05-03T04:02:50.379Z,53.25
2018-05-03T04:03:50.371Z,53.25
2018-05-03T04:04:50.102Z,53.82
2018-05-03T04:05:50.397Z,53.53
2018-05-03T04:06:50.429Z,53.82
2018-05-03T04:07:50.442Z,53.73
2018-05-03T04:08:50.174Z,53.63
2018-05-03T04:09:50.192Z,54.11
2018-05-03T04:10:50.498Z,53.44
2018-05-03T04:11:50.518Z,53.44
2018-05-03T04:12:50.522Z,53.34
2018-05-03T04:13:50.548Z,53.82
2018-05-03T04:14:50.649Z,53.92
2018-05-03T04:15:50.592Z,53.82
2018-05-03T04:16:50.591Z,53.82
2018-05-03T04:17:50.619Z,54.02
2018-05-03T04:18:50.682Z,54.02
2018-05-03T04:19:50.383Z,54.02
2018-05-03T04:20:50.398Z,53.82
2018-05-03T04:21:50.678Z,53.92
2018-05-03T04:22:50.700Z,53.92
2018-05-03T04:23:50.717Z,54.02
2018-05-03T04:24:50.472Z,53.73
2018-05-03T04:25:50.757Z,54.02
2018-05-03T04:26:50.774Z,53.34
2018-05-03T04:27:50.804Z,53.06
2018-05-03T04:28:50.874Z,53.16
2018-05-03T04:29:50.831Z,53.25
2018-05-03T04:30:50.864Z,53.63
2018-05-03T04:31:50.859Z,53.63
2018-05-03T04:32:50.886Z,53.25
2018-05-03T04:33:50.625Z,52.96
2018-05-03T04:34:50.936Z,52.96
2018-05-03T04:35:50.945Z,53.06
2018-05-03T04:36:50.968Z,53.63
2018-05-03T04:37:50.699Z,52.96
2018-05-03T04:38:50.767Z,53.44
2018-05-03T04:39:51.026Z,53.44
2018-05-03T04:40:51.045Z,52.96
2018-05-03T04:41:51.066Z,53.06
2018-05-03T04:42:51.100Z,53.16
2018-05-03T04:43:51.097Z,53.44
2018-05-03T04:44:51.103Z,52.96
2018-05-03T04:45:51.131Z,52.96
2018-05-03T04:46:50.914Z,53.44
2018-05-03T04:47:51.155Z,53.16
2018-05-03T04:48:51.224Z,53.06
2018-05-03T04:49:51.191Z,52.87
2018-05-03T04:50:51.214Z,53.25
2018-05-03T04:51:51.234Z,52.77
2018-05-03T04:52:51.253Z,53.25
2018-05-03T04:53:51.334Z,53.25
2018-05-03T04:54:51.289Z,52.96
2018-05-03T04:55:51.373Z,53.16
2018-05-03T04:56:51.317Z,53.34
2018-05-03T04:57:51.078Z,52.87
2018-05-03T04:58:51.139Z,52.77
2018-05-03T04:59:51.107Z,53.63
2018-05-03T05:00:51.389Z,53.16
2018-05-03T05:01:51.417Z,53.06
2018-05-03T05:02:51.436Z,52.87
2018-05-03T05:03:51.477Z,53.53
2018-05-03T05:04:51.579Z,53.73
2018-05-03T05:05:51.499Z,53.53
2018-05-03T05:06:51.530Z,53.73
2018-05-03T05:07:51.535Z,53.53
2018-05-03T05:08:51.269Z,53.53
2018-05-03T05:09:51.560Z,53.92
2018-05-03T05:10:51.572Z,53.44
2018-05-03T05:11:51.608Z,53.73
2018-05-03T05:12:51.639Z,53.44
2018-05-03T05:13:51.638Z,54.11
2018-05-03T05:14:51.375Z,53.53
2018-05-03T05:15:51.683Z,54.3
2018-05-03T05:16:51.413Z,54.68
2018-05-03T05:17:51.461Z,53.92
2018-05-03T05:18:51.462Z,54.23
2018-05-03T05:19:51.750Z,53.82
2018-05-03T05:20:51.776Z,54.11
2018-05-03T05:21:51.777Z,53.53
2018-05-03T05:22:51.797Z,53.82
2018-05-03T05:23:51.833Z,54.49
2018-05-03T05:24:51.568Z,53.73
2018-05-03T05:25:51.878Z,54.61
2018-05-03T05:26:51.867Z,54.49
2018-05-03T05:27:51.906Z,54.11
2018-05-03T05:28:51.910Z,53.92
2018-05-03T05:29:51.928Z,54.43
2018-05-03T05:30:52.146Z,54.59
2018-05-03T05:31:51.974Z,54.61
2018-05-03T05:32:51.984Z,54.52
2018-05-03T05:33:51.723Z,54.14
2018-05-03T05:34:51.736Z,53.85
2018-05-03T05:35:52.052Z,53.94
2018-05-03T05:36:52.078Z,54.43
2018-05-03T05:37:51.788Z,54.52
2018-05-03T05:38:52.005Z,55
2018-05-03T05:39:51.842Z,54.61
2018-05-03T05:40:52.143Z,54.14
2018-05-03T05:41:52.140Z,54.61
2018-05-03T05:42:52.168Z,54.43
2018-05-03T05:43:51.910Z,54.52
2018-05-03T05:44:52.219Z,54.9
2018-05-03T05:45:51.949Z,54.61
2018-05-03T05:46:52.234Z,55.1
2018-05-03T05:47:52.256Z,55.1
2018-05-03T05:48:51.989Z,55.19
2018-05-03T05:49:52.313Z,55.1
2018-05-03T05:50:52.314Z,55.57
2018-05-03T05:51:52.324Z,55.29
2018-05-03T05:52:52.340Z,55.1
2018-05-03T05:53:52.385Z,55.1
2018-05-03T05:54:52.389Z,55.29
2018-05-03T05:55:52.131Z,55
2018-05-03T05:56:52.416Z,55.29
2018-05-03T05:57:52.437Z,55.38
2018-05-03T05:58:52.463Z,55.29
2018-05-03T05:59:52.470Z,55.1
2018-05-03T06:00:52.519Z,54.52
2018-05-03T06:01:52.526Z,54.52
2018-05-03T06:02:52.524Z,54.9
2018-05-03T06:03:52.548Z,54.33
2018-05-03T06:04:52.587Z,54.33
2018-05-03T06:05:52.603Z,54.14
2018-05-03T06:06:52.620Z,54.33
2018-05-03T06:07:52.829Z,54.04
2018-05-03T06:08:52.659Z,54.14
2018-05-03T06:09:52.671Z,54.33
2018-05-03T06:10:52.405Z,54.52
2018-05-03T06:11:52.696Z,54.61
2018-05-03T06:12:52.715Z,55.12
2018-05-03T06:13:52.726Z,55.12
2018-05-03T06:14:52.769Z,54.93
2018-05-03T06:15:52.501Z,55.51
2018-05-03T06:16:52.803Z,54.83
2018-05-03T06:17:52.830Z,55.6
2018-05-03T06:18:52.823Z,54.83
2018-05-03T06:19:52.868Z,55.12
2018-05-03T06:20:52.865Z,55.41
2018-05-03T06:21:52.633Z,55.79
2018-05-03T06:22:52.898Z,55.22
2018-05-03T06:23:52.641Z,55.41
2018-05-03T06:24:52.670Z,55.41
2018-05-03T06:25:52.958Z,55.79
2018-05-03T06:26:52.973Z,55.98
2018-05-03T06:27:53.013Z,55.88
2018-05-03T06:28:53.014Z,55.79
2018-05-03T06:29:52.768Z,55.51
2018-05-03T06:30:53.059Z,55.91
2018-05-03T06:31:53.099Z,55.24
2018-05-03T06:32:53.115Z,55.44
2018-05-03T06:33:53.100Z,55.24
2018-05-03T06:34:53.125Z,54.96
2018-05-03T06:35:53.154Z,55.53
2018-05-03T06:36:52.882Z,55.15
2018-05-03T06:37:52.895Z,55.63
2018-05-03T06:38:53.273Z,55.15
2018-05-03T06:39:53.209Z,55.05
2018-05-03T06:40:53.233Z,55.05
2018-05-03T06:41:52.983Z,55.73
2018-05-03T06:42:53.283Z,55.18
2018-05-03T06:43:53.307Z,55.56
2018-05-03T06:44:53.307Z,55.65
2018-05-03T06:45:53.337Z,55.73
2018-05-03T06:46:53.346Z,54.99
2018-05-03T06:47:53.362Z,55.36
2018-05-03T06:48:53.487Z,54.5
2018-05-03T06:49:53.402Z,54.89
2018-05-03T06:50:53.436Z,54.79
2018-05-03T06:51:53.441Z,55.08
2018-05-03T06:52:53.472Z,54.89
2018-05-03T06:53:53.212Z,54.99
2018-05-03T06:54:53.510Z,55.08
2018-05-03T06:55:53.532Z,54.5
2018-05-03T06:56:53.536Z,54.7
2018-05-03T06:57:53.553Z,54.89
2018-05-03T06:58:53.627Z,54.79
2018-05-03T06:59:53.592Z,55.08
2018-05-03T07:00:53.624Z,55.01
2018-05-03T07:01:53.647Z,54.91
2018-05-03T07:02:53.383Z,54.53
2018-05-03T07:03:53.691Z,54.34
2018-05-03T07:04:53.695Z,54.82
2018-05-03T07:05:53.715Z,55.11
2018-05-03T07:06:53.724Z,54.53
2018-05-03T07:07:53.746Z,54.44
2018-05-03T07:08:53.768Z,54.34
2018-05-03T07:09:53.814Z,54.63
2018-05-03T07:10:53.523Z,54.53
2018-05-03T07:11:53.679Z,54.05
2018-05-03T07:12:53.841Z,54.08
2018-05-03T07:13:53.589Z,54.08
2018-05-03T07:14:53.880Z,54.56
2018-05-03T07:15:53.913Z,53.6
2018-05-03T07:16:53.915Z,54.37
2018-05-03T07:17:53.667Z,54.46
2018-05-03T07:18:53.966Z,53.7
2018-05-03T07:19:53.977Z,53.99
2018-05-03T07:20:54.014Z,53.24
2018-05-03T07:21:54.018Z,53.63
2018-05-03T07:22:54.044Z,53.63
2018-05-03T07:23:54.090Z,53.63
2018-05-03T07:24:54.089Z,53.24
2018-05-03T07:25:54.097Z,53.05
2018-05-03T07:26:54.118Z,53.05
2018-05-03T07:27:54.135Z,52.57
2018-05-03T07:28:54.168Z,52.48
2018-05-03T07:29:54.186Z,52.48
2018-05-03T07:30:54.192Z,52.02
2018-05-03T07:31:53.933Z,52.09
2018-05-03T07:32:54.252Z,51.81
2018-05-03T07:33:54.262Z,51.9
2018-05-03T07:34:54.528Z,51.71
2018-05-03T07:35:54.021Z,51.64
2018-05-03T07:36:54.043Z,51.54
2018-05-03T07:37:54.351Z,51.93
2018-05-03T07:38:54.358Z,51.45
2018-05-03T07:39:54.528Z,50.87
2018-05-03T07:40:54.196Z,50.68
2018-05-03T07:41:54.421Z,50.68
2018-05-03T07:42:54.436Z,50.68
2018-05-03T07:43:54.464Z,50.78
2018-05-03T07:44:54.579Z,50.1
2018-05-03T07:45:54.497Z,50.87
2018-05-03T07:46:54.503Z,50.49
2018-05-03T07:47:54.537Z,50.13
2018-05-03T07:48:54.556Z,50.23
2018-05-03T07:49:54.349Z,50.23
2018-05-03T07:50:54.608Z,49.93
2018-05-03T07:51:54.612Z,49.84
2018-05-03T07:52:54.643Z,50.61
2018-05-03T07:53:54.644Z,50.8
2018-05-03T07:54:54.685Z,50.51
2018-05-03T07:55:54.702Z,49.84
2018-05-03T07:56:54.705Z,49.38
2018-05-03T07:57:54.742Z,50.15
2018-05-03T07:58:54.479Z,49.29
2018-05-03T07:59:54.780Z,49.1
2018-05-03T08:00:54.781Z,48.71
2018-05-03T08:01:54.815Z,48.81
2018-05-03T08:02:54.851Z,48.71
2018-05-03T08:03:54.858Z,48.54
2018-05-03T08:04:54.890Z,48.33
2018-05-03T08:05:54.904Z,48.16
2018-05-03T08:06:54.913Z,47.87
2018-05-03T08:07:54.651Z,47.77
2018-05-03T08:08:54.683Z,47.87
2018-05-03T08:09:54.690Z,47.3
2018-05-03T08:10:54.731Z,47.3
2018-05-03T08:11:54.742Z,47.41
2018-05-03T08:12:55.025Z,47.31
2018-05-03T08:13:55.067Z,47.41
2018-05-03T08:14:55.141Z,46.93
2018-05-03T08:15:55.091Z,47.03
2018-05-03T08:16:55.114Z,46.45
2018-05-03T08:17:55.133Z,46.26
2018-05-03T08:18:54.875Z,46.16
2018-05-03T08:19:55.190Z,46.09
2018-05-03T08:20:54.917Z,46.19
2018-05-03T08:21:54.944Z,46.09
2018-05-03T08:22:55.237Z,45.99
2018-05-03T08:23:54.980Z,45.99
2018-05-03T08:24:55.343Z,45.8
2018-05-03T08:25:55.310Z,45.8
2018-05-03T08:26:55.329Z,45.61
2018-05-03T08:27:55.345Z,45.42
2018-05-03T08:28:55.365Z,45.51
2018-05-03T08:29:55.391Z,45.51
2018-05-03T08:30:55.407Z,45.32
2018-05-03T08:31:55.638Z,45.15
2018-05-03T08:32:55.441Z,44.84
2018-05-03T08:33:55.468Z,44.57
2018-05-03T08:34:55.536Z,44.48
2018-05-03T08:35:55.504Z,44.67
2018-05-03T08:36:55.530Z,44.48
2018-05-03T08:37:55.577Z,44.19
2018-05-03T08:38:55.577Z,44.19
2018-05-03T08:39:55.598Z,44.28
2018-05-03T08:40:55.614Z,44.28
2018-05-03T08:41:55.644Z,43.61
2018-05-03T08:42:55.665Z,44.09
2018-05-03T08:43:55.397Z,43.8
2018-05-03T08:44:55.763Z,43.71
2018-05-03T08:45:55.730Z,43.41
2018-05-03T08:46:55.764Z,43.41
2018-05-03T08:47:55.777Z,43.32
2018-05-03T08:48:55.777Z,43.34
2018-05-03T08:49:55.823Z,43.05
2018-05-03T08:50:55.820Z,43.34
2018-05-03T08:51:55.855Z,43.44
2018-05-03T08:52:55.862Z,42.67
2018-05-03T08:53:55.614Z,43.05
2018-05-03T08:54:55.958Z,42.57
2018-05-03T08:55:56.002Z,43.05
2018-05-03T08:56:55.685Z,42.86
2018-05-03T08:57:55.709Z,42.47
2018-05-03T08:58:56.007Z,42.57
2018-05-03T08:59:56.066Z,42.67
2018-05-03T09:00:56.147Z,42.11
2018-05-03T09:01:55.813Z,42.19
2018-05-03T09:02:56.084Z,42.28
2018-05-03T09:03:56.122Z,41.92
2018-05-03T09:04:55.908Z,41.53
2018-05-03T09:05:56.159Z,41.14
2018-05-03T09:06:56.185Z,41.05
2018-05-03T09:07:56.330Z,41.05
2018-05-03T09:08:56.218Z,40.95
2018-05-03T09:09:55.954Z,40.57
2018-05-03T09:10:56.275Z,40.57
2018-05-03T09:11:56.294Z,40.57
2018-05-03T09:12:56.311Z,40.28
2018-05-03T09:13:56.334Z,39.99
2018-05-03T09:14:56.394Z,39.79
2018-05-03T09:15:56.367Z,39.7
2018-05-03T09:16:56.404Z,39.82
2018-05-03T09:17:56.138Z,40.01
2018-05-03T09:18:56.430Z,39.43
2018-05-03T09:19:56.464Z,39.45
2018-05-03T09:20:56.521Z,39.26
2018-05-03T09:21:56.496Z,38.78
2018-05-03T09:22:56.524Z,38.78
2018-05-03T09:23:56.555Z,38.1
2018-05-03T09:24:56.569Z,38.51
2018-05-03T09:25:56.607Z,38.51
2018-05-03T09:26:56.674Z,38.31
2018-05-03T09:27:56.639Z,37.54
2018-05-03T09:28:56.666Z,37.25
2018-05-03T09:29:56.685Z,37.95
2018-05-03T09:30:56.433Z,37.65
2018-05-03T09:31:56.452Z,37.75
2018-05-03T09:32:56.756Z,37.17
2018-05-03T09:33:56.783Z,37.08
2018-05-03T09:34:56.513Z,36.98
2018-05-03T09:35:56.827Z,37
2018-05-03T09:36:56.840Z,36.9
2018-05-03T09:37:56.576Z,37
2018-05-03T09:38:56.879Z,37.1
2018-05-03T09:39:56.896Z,37.19
2018-05-03T09:40:56.934Z,37.1
2018-05-03T09:41:56.970Z,37
2018-05-03T09:42:56.980Z,36.71
2018-05-03T09:43:56.993Z,36.44
2018-05-03T09:44:57.015Z,36.72
2018-05-03T09:45:57.042Z,36.53
2018-05-03T09:46:57.062Z,36.44
2018-05-03T09:47:57.085Z,35.95
2018-05-03T09:48:56.831Z,35.57
2018-05-03T09:49:57.139Z,35.66
2018-05-03T09:50:57.156Z,36.07
2018-05-03T09:51:57.186Z,36.16
2018-05-03T09:52:57.209Z,35.49
2018-05-03T09:53:57.221Z,35.58
2018-05-03T09:54:57.264Z,35.49
2018-05-03T09:55:57.285Z,35.58
2018-05-03T09:56:57.014Z,34.91
2018-05-03T09:57:57.330Z,35.41
2018-05-03T09:58:57.063Z,35.5
2018-05-03T09:59:57.386Z,35.12
2018-05-03T10:00:57.406Z,35.5
2018-05-03T10:01:57.425Z,34.92
2018-05-03T10:02:57.430Z,35.21
2018-05-03T10:03:57.178Z,34.73
2018-05-03T10:04:57.608Z,34.45
2018-05-03T10:05:57.522Z,34.17
2018-05-03T10:06:57.266Z,34.17
2018-05-03T10:07:57.553Z,34.65
2018-05-03T10:08:57.592Z,34.45
2018-05-03T10:09:57.616Z,34.65
2018-05-03T10:10:57.373Z,34.17
2018-05-03T10:11:57.665Z,34.09
2018-05-03T10:12:57.687Z,34.38
2018-05-03T10:13:57.417Z,33.99
2018-05-03T10:14:57.738Z,33.7
2018-05-03T10:15:57.743Z,33.8
2018-05-03T10:16:57.772Z,33.6
2018-05-03T10:17:57.522Z,33.81
2018-05-03T10:18:57.842Z,33.62
2018-05-03T10:19:57.842Z,33.52
2018-05-03T10:20:57.877Z,33.23
2018-05-03T10:21:57.888Z,32.94
2018-05-03T10:22:57.644Z,32.47
2018-05-03T10:23:57.963Z,32.57
2018-05-03T10:24:57.969Z,32.47
2018-05-03T10:25:57.982Z,32.09
2018-05-03T10:26:57.748Z,31.79
2018-05-03T10:27:58.035Z,31.89
2018-05-03T10:28:58.066Z,32.09
2018-05-03T10:29:58.308Z,31.99
2018-05-03T10:30:58.111Z,31.5
2018-05-03T10:31:58.153Z,31.5
2018-05-03T10:32:58.165Z,31.7
2018-05-03T10:33:58.185Z,31.42
2018-05-03T10:34:58.229Z,31.32
2018-05-03T10:35:58.433Z,31.42
2018-05-03T10:36:58.279Z,31.52
2018-05-03T10:37:58.303Z,31.52
2018-05-03T10:38:58.032Z,31.62
2018-05-03T10:39:58.342Z,31.52
2018-05-03T10:40:58.361Z,31.23
2018-05-03T10:41:58.450Z,31.63
2018-05-03T10:42:58.412Z,31.24
2018-05-03T10:43:58.451Z,31.24
2018-05-03T10:44:58.460Z,30.95
2018-05-03T10:45:58.482Z,30.37
2018-05-03T10:46:58.516Z,30.66
2018-05-03T10:47:58.562Z,29.88
2018-05-03T10:48:58.593Z,29.88
2018-05-03T10:49:58.610Z,29.8
2018-05-03T10:50:58.621Z,29.71
2018-05-03T10:51:58.653Z,29.12
2018-05-03T10:52:58.386Z,29.12
2018-05-03T10:53:58.707Z,29.02
2018-05-03T10:54:58.731Z,28.93
2018-05-03T10:55:58.754Z,29.02
2018-05-03T10:56:58.491Z,29.12
2018-05-03T10:57:58.787Z,29.22
2018-05-03T10:58:58.813Z,29.02
2018-05-03T10:59:58.843Z,28.64
2018-05-03T11:00:58.884Z,28.64
2018-05-03T11:01:58.907Z,28.65
2018-05-03T11:02:58.931Z,28.55
2018-05-03T11:03:58.667Z,28.55
2018-05-03T11:04:58.981Z,28.65
2018-05-03T11:05:58.997Z,28.55
2018-05-03T11:06:58.756Z,28.94
2018-05-03T11:07:59.059Z,28.75
2018-05-03T11:08:59.074Z,28.65
2018-05-03T11:09:59.111Z,28.45
2018-05-03T11:10:59.144Z,28.28
2018-05-03T11:11:59.147Z,28.18
2018-05-03T11:12:59.192Z,28.18
2018-05-03T11:13:58.927Z,27.79
2018-05-03T11:14:59.231Z,28.08
2018-05-03T11:15:59.275Z,28.08
2018-05-03T11:16:59.002Z,27.89
2018-05-03T11:17:59.325Z,27.59
2018-05-03T11:18:59.353Z,27.8
2018-05-03T11:19:59.085Z,27.8
2018-05-03T11:20:59.108Z,27.7
2018-05-03T11:21:59.414Z,27.8
2018-05-03T11:22:59.435Z,27.7
2018-05-03T11:23:59.460Z,27.61
2018-05-03T11:24:59.486Z,28.09
2018-05-03T11:25:59.659Z,27.7
2018-05-03T11:26:59.561Z,27.82
2018-05-03T11:27:59.587Z,27.43
2018-05-03T11:28:59.618Z,27.23
2018-05-03T11:29:59.641Z,27.33
2018-05-03T11:30:59.669Z,27.62
2018-05-03T11:31:59.675Z,27.62
2018-05-03T11:32:59.441Z,26.84
2018-05-03T11:33:59.727Z,26.94
2018-05-03T11:34:59.761Z,27.15
2018-05-03T11:35:59.791Z,27.34
2018-05-03T11:36:59.946Z,27.25
2018-05-03T11:37:59.840Z,26.86
2018-05-03T11:38:59.880Z,26.57
2018-05-03T11:39:59.906Z,26.67
2018-05-03T11:40:59.646Z,26.95
2018-05-03T11:41:59.955Z,26.95
2018-05-03T11:42:59.970Z,26.76
2018-05-03T11:44:00.021Z,26.87
2018-05-03T11:45:00.038Z,26.29
2018-05-03T11:45:59.776Z,26.29
2018-05-03T11:47:00.085Z,26.29
2018-05-03T11:48:00.122Z,26.29
2018-05-03T11:49:00.147Z,26.19
2018-05-03T11:50:00.176Z,26.29
2018-05-03T11:51:00.190Z,26.09
2018-05-03T11:51:59.951Z,25.99
2018-05-03T11:53:00.243Z,26.19
2018-05-03T11:54:00.271Z,25.31
2018-05-03T11:55:00.312Z,25.6
2018-05-03T11:56:00.340Z,25.6
2018-05-03T11:57:00.077Z,25.52
2018-05-03T11:58:00.117Z,25.23
2018-05-03T11:59:00.419Z,25.13
2018-05-03T12:00:00.434Z,25.52
2018-05-03T12:01:00.473Z,25.23
2018-05-03T12:02:00.502Z,25.32
2018-05-03T12:03:00.513Z,25.32
2018-05-03T12:04:00.559Z,25.32
2018-05-03T12:05:00.565Z,25.32
2018-05-03T12:06:00.651Z,25.14
2018-05-03T12:07:00.626Z,25.14
2018-05-03T12:08:00.377Z,24.95
2018-05-03T12:09:00.414Z,25.04
2018-05-03T12:10:00.724Z,25.04
2018-05-03T12:11:00.463Z,24.76
2018-05-03T12:12:00.760Z,24.46
2018-05-03T12:13:00.786Z,24.37
2018-05-03T12:14:00.558Z,24.56
2018-05-03T12:15:00.573Z,24.37
2018-05-03T12:16:00.879Z,24.67
2018-05-03T12:17:00.905Z,24.28
2018-05-03T12:18:00.925Z,24.08
2018-05-03T12:19:00.971Z,24.08
2018-05-03T12:20:01.001Z,23.79
2018-05-03T12:21:01.012Z,23.79
2018-05-03T12:22:01.050Z,23.4
2018-05-03T12:23:01.080Z,23.69
2018-05-03T12:24:01.091Z,22.81
2018-05-03T12:25:01.143Z,23.11
2018-05-03T12:26:01.165Z,23.51
2018-05-03T12:27:00.900Z,23.51
2018-05-03T12:28:01.225Z,23.51
2018-05-03T12:29:01.255Z,23.12
2018-05-03T12:30:01.275Z,23.32
2018-05-03T12:31:01.307Z,23.02
2018-05-03T12:32:01.059Z,23.41
2018-05-03T12:33:01.374Z,23.51
2018-05-03T12:34:01.397Z,23.41
2018-05-03T12:35:01.568Z,23.22
2018-05-03T12:36:01.175Z,22.92
2018-05-03T12:37:01.476Z,23.02
2018-05-03T12:38:01.505Z,23.13
2018-05-03T12:39:01.520Z,22.34
2018-05-03T12:40:01.561Z,22.45
2018-05-03T12:41:01.592Z,22.55
2018-05-03T12:42:01.628Z,22.55
2018-05-03T12:43:01.633Z,22.55
2018-05-03T12:44:01.677Z,23.13
2018-05-03T12:45:01.693Z,23.13
2018-05-03T12:46:01.733Z,22.55
2018-05-03T12:47:01.744Z,23.13
2018-05-03T12:48:01.787Z,22.94
2018-05-03T12:49:01.529Z,22.56
2018-05-03T12:50:01.832Z,22.56
2018-05-03T12:51:01.872Z,22.46
2018-05-03T12:52:01.891Z,22.56
2018-05-03T12:53:01.955Z,22.85
2018-05-03T12:54:02.010Z,22.66
2018-05-03T12:55:01.973Z,22.46
2018-05-03T12:56:02.016Z,22.36